Time;durP1;ratioP1;P1;durP2;ratioP2;P2;SDS_P1;SDS_P2;PMS_P1;PMS_P2;Temp;Humidity;BMP_temperature;BMP_pressure;BME280_temperature;BME280_humidity;BME280_pressure;Samples;Min_cycle;Max_cycle;Signal;HPM_P1;HPM_P2
2022/08/04 00:00:07;;;;;;;2.33;2.15;;;;;;;23.73;59.09;100639.66;5023510;28;20200;-84
2022/08/04 00:02:50;;;;;;;3.30;2.20;;;;;;;23.73;59.46;100640.53;5023629;28;20280;-85
2022/08/04 00:05:27;;;;;;;3.17;2.10;;;;;;;23.71;59.33;100641.72;5020571;28;20195;-84
2022/08/04 00:08:05;;;;;;;2.60;2.00;;;;;;;23.67;59.58;100638.53;5024610;28;20204;-84
2022/08/04 00:10:39;;;;;;;3.15;2.05;;;;;;;23.62;59.65;100645.56;5026046;28;20205;-84
2022/08/04 00:13:08;;;;;;;2.90;2.60;;;;;;;23.57;59.98;100642.53;5025672;28;20234;-85
2022/08/04 00:15:36;;;;;;;3.05;2.30;;;;;;;23.51;59.85;100639.50;5023902;28;20229;-85
2022/08/04 00:18:04;;;;;;;4.30;2.22;;;;;;;23.45;59.86;100644.78;5024389;28;20651;-84
2022/08/04 00:20:33;;;;;;;3.17;2.35;;;;;;;23.35;59.95;100642.28;5022700;28;20658;-86
2022/08/04 00:23:01;;;;;;;2.20;2.00;;;;;;;23.24;60.50;100642.72;5021513;28;20610;-84
2022/08/04 00:25:28;;;;;;;2.72;2.03;;;;;;;23.14;60.78;100642.94;5021248;28;20198;-84
2022/08/04 00:28:00;;;;;;;2.47;1.80;;;;;;;23.07;60.86;100627.53;5024800;28;20212;-84
2022/08/04 00:30:27;;;;;;;3.45;2.25;;;;;;;22.99;61.46;100639.28;5025964;28;20664;-85
2022/08/04 00:32:56;;;;;;;2.50;2.30;;;;;;;22.95;61.76;100639.81;5023148;28;20229;-84
2022/08/04 00:35:23;;;;;;;4.05;2.28;;;;;;;22.89;62.00;100637.81;5026023;28;20297;-84
2022/08/04 00:37:52;;;;;;;4.90;2.50;;;;;;;22.83;62.37;100640.22;5028993;28;20206;-85
2022/08/04 00:40:24;;;;;;;3.17;2.50;;;;;;;22.81;62.44;100636.81;5022508;28;20202;-85
2022/08/04 00:42:58;;;;;;;3.25;2.35;;;;;;;22.80;62.62;100635.13;5030300;28;20752;-84
2022/08/04 00:45:45;;;;;;;3.58;2.42;;;;;;;22.77;62.82;100635.47;5024695;28;20208;-84
2022/08/04 00:48:32;;;;;;;3.13;2.20;;;;;;;22.74;62.72;100637.69;5030650;28;20209;-85
2022/08/04 00:51:13;;;;;;;2.85;2.63;;;;;;;22.66;62.77;100633.13;5022226;28;20198;-84
2022/08/04 00:53:54;;;;;;;4.15;2.55;;;;;;;22.59;62.85;100634.84;5025348;28;20570;-84
2022/08/04 00:56:43;;;;;;;3.20;2.55;;;;;;;22.52;63.15;100631.16;5022061;28;20218;-84
2022/08/04 00:59:20;;;;;;;5.75;2.33;;;;;;;22.47;63.43;100631.66;5025581;28;20206;-85
2022/08/04 01:01:58;;;;;;;3.75;2.28;;;;;;;22.43;63.53;100633.03;5029197;28;20232;-84
2022/08/04 01:04:38;;;;;;;3.13;2.60;;;;;;;22.40;63.60;100635.22;5027689;28;20208;-85
2022/08/04 01:07:20;;;;;;;2.88;2.40;;;;;;;22.37;63.60;100632.91;5026417;28;20558;-84
2022/08/04 01:09:54;;;;;;;4.63;2.58;;;;;;;22.37;63.70;100631.03;5029888;28;20783;-85
2022/08/04 01:12:41;;;;;;;3.55;2.50;;;;;;;22.35;63.65;100627.63;5031390;28;20230;-84
2022/08/04 01:15:17;;;;;;;4.32;2.47;;;;;;;22.35;63.70;100621.38;5027236;28;20194;-84
2022/08/04 01:17:58;;;;;;;2.95;2.20;;;;;;;22.31;63.59;100615.44;5030016;28;20202;-85
2022/08/04 01:20:26;;;;;;;3.00;2.60;;;;;;;22.29;63.80;100617.47;5029220;28;20202;-84
2022/08/04 01:23:23;;;;;;;4.45;2.50;;;;;;;22.28;63.93;100623.06;5031417;28;20317;-84
2022/08/04 01:26:35;;;;;;;2.75;2.20;;;;;;;22.25;64.08;100626.97;5030699;28;20212;-86
2022/08/04 01:29:08;;;;;;;4.05;2.83;;;;;;;22.23;64.16;100628.16;5020193;28;20222;-85
2022/08/04 01:31:46;;;;;;;3.90;2.90;;;;;;;22.20;63.99;100623.09;5022191;28;20253;-85
2022/08/04 01:34:13;;;;;;;2.90;2.70;;;;;;;22.17;64.48;100630.56;5019990;28;20202;-84
2022/08/04 01:36:46;;;;;;;4.38;3.03;;;;;;;22.18;64.76;100628.69;5018887;28;20231;-84
2022/08/04 01:42:00;;;;;;;3.30;2.85;;;;;;;22.12;65.07;100616.66;5023673;28;20236;-84
2022/08/04 01:44:28;;;;;;;3.28;2.97;;;;;;;22.11;65.23;100622.25;5020818;28;20214;-85
2022/08/04 01:46:55;;;;;;;3.45;3.03;;;;;;;22.11;65.29;100622.25;5028916;28;20260;-85
2022/08/04 01:49:27;;;;;;;4.35;3.38;;;;;;;22.08;65.46;100623.44;5030347;28;20642;-85
2022/08/04 01:51:56;;;;;;;5.77;3.20;;;;;;;22.07;65.67;100610.91;5025418;28;20225;-85
2022/08/04 01:54:23;;;;;;;3.55;3.17;;;;;;;22.07;65.73;100615.47;5029178;28;20298;-84
2022/08/04 01:56:50;;;;;;;4.32;2.80;;;;;;;22.05;65.71;100612.94;5028012;28;20231;-84
2022/08/04 01:59:19;;;;;;;3.00;2.70;;;;;;;21.99;65.16;100616.31;5032131;28;20228;-84
2022/08/04 02:01:47;;;;;;;3.40;2.63;;;;;;;21.83;65.01;100610.91;5029841;28;20230;-84
2022/08/04 02:04:15;;;;;;;3.33;2.63;;;;;;;21.68;65.23;100602.59;5025047;28;20217;-84
2022/08/04 02:06:52;;;;;;;3.60;2.70;;;;;;;21.57;65.78;100613.78;5029366;28;20210;-84
2022/08/04 02:09:24;;;;;;;2.90;2.60;;;;;;;21.49;66.35;100608.38;5021605;28;20201;-84
2022/08/04 02:12:02;;;;;;;3.33;2.97;;;;;;;21.43;66.91;100601.78;5032150;28;20229;-85
2022/08/04 02:14:44;;;;;;;3.93;2.80;;;;;;;21.42;67.41;100600.06;5032430;28;20224;-85
2022/08/04 02:17:19;;;;;;;4.37;3.00;;;;;;;21.40;67.38;100596.69;5033143;28;20224;-85
2022/08/04 02:20:03;;;;;;;4.53;3.10;;;;;;;21.41;67.58;100603.78;5033175;28;20301;-85
2022/08/04 02:22:34;;;;;;;3.10;2.80;;;;;;;21.41;67.44;100597.53;5034191;28;20633;-85
2022/08/04 02:25:06;;;;;;;5.20;3.27;;;;;;;21.40;67.48;100603.97;5035846;28;20206;-85
2022/08/04 02:27:48;;;;;;;3.35;2.58;;;;;;;21.39;67.71;100600.41;5030193;28;20680;-84
2022/08/04 02:30:14;;;;;;;4.87;3.30;;;;;;;21.35;67.36;100604.47;5025939;28;20217;-85
2022/08/04 02:32:45;;;;;;;4.07;2.75;;;;;;;21.30;67.30;100606.00;5033152;28;20225;-85
2022/08/04 02:35:15;;;;;;;3.53;3.03;;;;;;;21.23;67.61;100600.38;5029944;28;20290;-85
2022/08/04 02:37:47;;;;;;;3.70;3.00;;;;;;;21.20;67.39;100586.31;5029639;28;20253;-85
2022/08/04 02:40:19;;;;;;;3.42;3.10;;;;;;;21.17;67.46;100598.31;5035623;28;20209;-85
2022/08/04 02:42:46;;;;;;;3.27;2.93;;;;;;;21.11;67.48;100586.31;5025442;28;20256;-85
2022/08/04 02:45:13;;;;;;;3.00;2.70;;;;;;;21.05;67.55;100592.38;5031459;28;20219;-85
2022/08/04 02:47:41;;;;;;;4.13;2.80;;;;;;;21.00;68.00;100589.31;5033782;28;20609;-85
2022/08/04 02:50:14;;;;;;;4.53;2.90;;;;;;;20.96;68.20;100587.94;5039560;28;20209;-85
2022/08/04 02:52:43;;;;;;;2.60;2.40;;;;;;;20.92;68.24;100586.59;5029563;28;20717;-84
2022/08/04 02:55:11;;;;;;;3.73;2.80;;;;;;;20.87;68.34;100579.97;5033952;28;20205;-86
2022/08/04 02:57:39;;;;;;;3.90;3.00;;;;;;;20.79;68.56;100588.91;5034088;28;20230;-85
2022/08/04 03:00:09;;;;;;;3.43;2.70;;;;;;;20.74;69.04;100589.41;5035881;28;20234;-86
2022/08/04 03:02:50;;;;;;;3.10;2.80;;;;;;;20.70;69.07;100587.19;5035517;28;20311;-85
2022/08/04 03:05:21;;;;;;;5.17;2.83;;;;;;;20.66;69.45;100586.66;5033722;28;20212;-85
2022/08/04 03:08:07;;;;;;;2.77;2.57;;;;;;;20.66;69.36;100586.66;5026169;28;20198;-85
2022/08/04 03:11:01;;;;;;;5.33;2.67;;;;;;;20.66;69.48;100594.78;5028228;28;20205;-85
2022/08/04 03:13:45;;;;;;;4.57;2.73;;;;;;;20.65;69.51;100584.97;5022369;28;20281;-85
2022/08/04 03:16:58;;;;;;;3.30;3.00;;;;;;;20.65;69.55;100590.38;5025099;28;20234;-85
2022/08/04 03:19:58;;;;;;;2.70;2.50;;;;;;;20.65;69.62;100589.53;4945482;28;20219;-85
2022/08/04 03:22:50;;;;;;;2.90;2.70;;;;;;;20.64;69.62;100595.97;4913205;29;20249;-85
2022/08/04 03:25:45;;;;;;;3.23;2.67;;;;;;;20.61;69.74;100597.13;5019842;28;20214;-85
2022/08/04 03:28:36;;;;;;;4.40;2.90;;;;;;;20.59;69.67;100591.06;5009800;28;20205;-85
2022/08/04 03:31:32;;;;;;;3.50;2.80;;;;;;;20.57;70.07;100592.22;5024034;28;20206;-84
2022/08/04 03:34:15;;;;;;;3.93;2.57;;;;;;;20.55;70.24;100589.69;5021002;28;20203;-85
2022/08/04 03:37:03;;;;;;;6.00;3.00;;;;;;;20.52;70.32;100587.28;5020176;28;20550;-85
2022/08/04 03:39:47;;;;;;;3.30;3.00;;;;;;;20.51;70.23;100591.00;5026303;28;20266;-85
2022/08/04 03:42:39;;;;;;;3.03;2.70;;;;;;;20.47;69.90;100592.34;5023236;28;20240;-86
2022/08/04 03:45:38;;;;;;;4.33;3.17;;;;;;;20.41;70.03;100590.31;5017423;28;20209;-85
2022/08/04 03:48:46;;;;;;;6.97;3.07;;;;;;;20.36;70.19;100588.06;5019163;28;20206;-86
2022/08/04 03:54:48;;;;;;;3.47;3.17;;;;;;;20.26;70.70;100583.75;4961390;28;20629;-86
2022/08/04 03:57:42;;;;;;;5.83;3.00;;;;;;;20.22;70.70;100582.41;5023067;28;20697;-85
2022/08/04 04:00:14;;;;;;;5.50;3.37;;;;;;;20.19;71.16;100593.53;5013715;28;20582;-85
2022/08/04 04:03:15;;;;;;;3.40;3.07;;;;;;;20.15;70.97;100584.88;5033737;28;20345;-86
2022/08/04 04:05:59;;;;;;;5.37;3.20;;;;;;;20.10;71.14;100592.63;5024176;28;20205;-85
2022/08/04 04:08:56;;;;;;;6.90;3.70;;;;;;;20.06;71.54;100589.38;5024537;28;20204;-85
2022/08/04 04:11:41;;;;;;;5.93;3.10;;;;;;;20.03;71.64;100578.91;5030916;28;20217;-85
2022/08/04 04:14:44;;;;;;;4.67;3.90;;;;;;;20.02;71.83;100590.72;5027549;28;20201;-84
2022/08/04 04:17:30;;;;;;;4.53;3.10;;;;;;;20.00;72.31;100583.78;5021563;28;20232;-84
2022/08/04 04:20:35;;;;;;;5.77;3.20;;;;;;;19.99;71.99;100588.34;5028170;28;20235;-84
2022/08/04 04:23:15;;;;;;;4.47;2.67;;;;;;;19.97;72.30;100587.66;4993359;28;20226;-84
2022/08/04 04:25:55;;;;;;;2.87;2.63;;;;;;;19.95;72.60;100589.66;5040862;28;20216;-84
2022/08/04 04:28:50;;;;;;;5.23;3.13;;;;;;;19.94;72.24;100590.66;5035198;28;20293;-84
2022/08/04 04:31:34;;;;;;;3.77;3.00;;;;;;;19.92;72.42;100586.41;5032160;28;20212;-84
2022/08/04 04:34:16;;;;;;;3.07;2.80;;;;;;;19.92;72.76;100592.66;5037170;28;20201;-84
2022/08/04 04:36:53;;;;;;;5.70;3.37;;;;;;;19.93;72.69;100594.38;5034555;28;20221;-84
2022/08/04 04:39:31;;;;;;;3.50;3.17;;;;;;;19.92;72.92;100586.41;5036401;28;20203;-84
2022/08/04 04:42:22;;;;;;;4.87;3.80;;;;;;;19.91;73.39;100588.28;5038547;28;20312;-84
2022/08/04 04:45:02;;;;;;;4.40;3.03;;;;;;;19.90;73.62;100588.44;5037039;28;20209;-84
2022/08/04 04:47:37;;;;;;;4.80;3.73;;;;;;;19.88;74.17;100591.31;5036814;28;20228;-83
2022/08/04 04:50:13;;;;;;;3.67;3.33;;;;;;;19.87;74.58;100586.91;5038586;28;20272;-83
2022/08/04 04:52:45;;;;;;;3.93;3.57;;;;;;;19.87;74.95;100586.91;5039380;28;20274;-84
2022/08/04 04:55:19;;;;;;;4.17;3.37;;;;;;;19.87;75.23;100592.31;5038474;28;20201;-84
2022/08/04 04:57:48;;;;;;;6.57;3.60;;;;;;;19.87;75.69;100589.63;5035686;28;20226;-84
2022/08/04 05:00:17;;;;;;;5.10;3.60;;;;;;;19.89;75.96;100592.97;5037373;28;20219;-84
2022/08/04 05:03:30;;;;;;;5.10;3.80;;;;;;;19.91;76.06;100580.16;5036822;28;20697;-84
2022/08/04 05:06:13;;;;;;;5.23;4.03;;;;;;;19.93;76.38;100588.13;5013690;28;20710;-84
2022/08/04 05:09:02;;;;;;;6.00;4.30;;;;;;;19.96;76.59;100585.09;5031880;28;20652;-84
2022/08/04 05:12:08;;;;;;;5.57;4.30;;;;;;;19.98;76.85;100581.22;5036878;28;20243;-84
2022/08/04 05:14:39;;;;;;;4.83;4.43;;;;;;;20.00;76.85;100590.03;5021645;28;20223;-85
2022/08/04 05:17:15;;;;;;;4.40;4.00;;;;;;;20.03;76.95;100587.03;5027273;28;20226;-85
2022/08/04 05:19:53;;;;;;;6.23;5.17;;;;;;;20.06;76.89;100583.97;5032027;28;20206;-85
2022/08/04 05:22:24;;;;;;;6.80;4.50;;;;;;;20.11;77.12;100581.63;5034324;28;20221;-84
2022/08/04 05:25:00;;;;;;;4.97;4.57;;;;;;;20.15;76.92;100582.19;5028592;28;20732;-84
2022/08/04 05:27:31;;;;;;;6.37;5.07;;;;;;;20.21;76.74;100580.69;5025724;28;20209;-84
2022/08/04 05:30:02;;;;;;;8.13;5.33;;;;;;;20.25;76.82;100588.31;5025681;28;20221;-85
2022/08/04 05:32:38;;;;;;;6.87;4.50;;;;;;;20.31;76.71;100584.13;5033165;28;20232;-84
2022/08/04 05:35:09;;;;;;;6.00;4.10;;;;;;;20.36;76.62;100584.50;5018099;28;20228;-84
2022/08/04 05:37:40;;;;;;;6.87;4.73;;;;;;;20.42;76.66;100579.28;5021722;28;20743;-84
2022/08/04 05:40:09;;;;;;;5.67;4.40;;;;;;;20.50;76.59;100574.94;5022467;28;20199;-85
2022/08/04 05:42:39;;;;;;;6.50;4.60;;;;;;;20.56;76.53;100577.84;5029537;28;20216;-84
2022/08/04 05:45:08;;;;;;;6.40;3.90;;;;;;;20.65;76.64;100578.72;5026033;28;20206;-84
2022/08/04 05:47:37;;;;;;;4.27;3.90;;;;;;;20.74;76.56;100575.88;5028189;28;20205;-84
2022/08/04 05:50:05;;;;;;;6.90;3.83;;;;;;;20.85;76.18;100574.72;5033202;28;20197;-84
2022/08/04 05:52:34;;;;;;;6.23;4.03;;;;;;;20.95;75.55;100569.19;5033680;28;20219;-84
2022/08/04 05:55:02;;;;;;;5.60;3.50;;;;;;;21.05;75.14;100567.16;5031407;28;20657;-84
2022/08/04 05:57:30;;;;;;;4.63;3.67;;;;;;;21.15;74.35;100565.13;5031947;28;20843;-84
2022/08/04 06:00:00;;;;;;;4.57;3.73;;;;;;;21.26;74.07;100564.00;5030460;28;20210;-84
2022/08/04 06:02:30;;;;;;;4.20;3.35;;;;;;;21.37;73.11;100569.06;5032714;28;20940;-84
2022/08/04 06:05:00;;;;;;;4.03;3.70;;;;;;;21.50;72.77;100563.16;5030828;28;20299;-84
2022/08/04 06:07:27;;;;;;;4.57;3.70;;;;;;;21.63;72.11;100560.78;5026908;28;20197;-84
2022/08/04 06:09:54;;;;;;;4.27;3.80;;;;;;;21.76;71.71;100553.81;5031551;28;20208;-84
2022/08/04 06:12:23;;;;;;;3.53;3.22;;;;;;;21.91;70.91;100555.81;5031494;28;20222;-84
2022/08/04 06:14:53;;;;;;;5.80;3.65;;;;;;;22.04;70.63;100546.16;5031617;28;20660;-84
2022/08/04 06:17:26;;;;;;;4.93;3.88;;;;;;;22.22;70.04;100558.63;5031732;28;20593;-84
2022/08/04 06:19:54;;;;;;;3.72;3.30;;;;;;;22.36;69.67;100549.78;5032939;28;20206;-83
2022/08/04 06:22:24;;;;;;;5.90;3.88;;;;;;;22.51;69.14;100548.03;5027143;28;20226;-84
2022/08/04 06:24:54;;;;;;;9.75;3.75;;;;;;;22.68;68.77;100555.06;5023837;28;20203;-85
2022/08/04 06:27:21;;;;;;;4.40;3.33;;;;;;;22.84;68.25;100548.72;5020846;28;20209;-85
2022/08/04 06:29:49;;;;;;;4.72;3.90;;;;;;;22.99;68.02;100552.38;5025964;28;20542;-84
2022/08/04 06:32:29;;;;;;;3.35;3.15;;;;;;;23.16;67.54;100547.66;5029576;28;20583;-84
2022/08/04 06:34:58;;;;;;;5.32;3.22;;;;;;;23.36;66.82;100545.31;5028124;28;20206;-85
2022/08/04 06:37:27;;;;;;;6.30;3.78;;;;;;;23.54;66.00;100543.13;5020123;28;20234;-85
2022/08/04 06:39:55;;;;;;;4.00;3.17;;;;;;;23.71;65.16;100535.69;5022095;28;20234;-84
2022/08/04 06:42:23;;;;;;;3.47;3.17;;;;;;;23.84;63.70;100549.47;5018344;28;20228;-85
2022/08/04 06:44:58;;;;;;;5.15;2.67;;;;;;;23.97;62.60;100543.41;5021534;28;20209;-84
2022/08/04 06:47:25;;;;;;;3.20;2.90;;;;;;;24.10;61.60;100539.00;5027701;28;20681;-84
2022/08/04 06:49:54;;;;;;;4.53;3.10;;;;;;;24.27;61.71;100539.69;5026535;28;20209;-85
2022/08/04 06:52:21;;;;;;;4.63;3.50;;;;;;;24.43;60.93;100535.91;5026432;28;20230;-84
2022/08/04 06:54:51;;;;;;;4.50;3.85;;;;;;;24.59;60.57;100538.41;5020888;28;20220;-85
2022/08/04 06:57:20;;;;;;;5.65;3.83;;;;;;;24.73;59.86;100525.78;5020967;28;20237;-85
2022/08/04 06:59:54;;;;;;;4.22;3.78;;;;;;;24.89;58.56;100525.59;5023132;28;20218;-85
2022/08/04 07:02:26;;;;;;;5.32;3.65;;;;;;;25.04;58.02;100520.97;5017912;28;20700;-85
2022/08/04 07:04:53;;;;;;;11.18;3.85;;;;;;;25.19;57.35;100521.72;5022592;28;20202;-85
2022/08/04 07:07:20;;;;;;;6.85;3.83;;;;;;;25.33;56.43;100522.69;5019949;28;20210;-85
2022/08/04 07:09:46;;;;;;;7.50;4.03;;;;;;;25.49;56.44;100525.13;5021301;28;20207;-84
2022/08/04 07:12:19;;;;;;;4.68;3.92;;;;;;;25.66;55.86;100520.25;5020279;28;20336;-85
2022/08/04 07:14:46;;;;;;;9.05;4.05;;;;;;;25.83;55.66;100518.06;5026354;28;20201;-85
2022/08/04 07:17:15;;;;;;;6.22;3.67;;;;;;;25.98;54.21;100504.34;5018080;28;20206;-85
2022/08/04 07:19:43;;;;;;;5.95;3.58;;;;;;;26.13;53.79;100510.53;5021762;28;20206;-84
2022/08/04 07:22:10;;;;;;;4.25;2.85;;;;;;;26.30;53.11;100511.06;5023630;28;20655;-85
2022/08/04 07:24:38;;;;;;;5.07;2.90;;;;;;;26.49;52.52;100510.31;5023804;28;20669;-85
2022/08/04 07:27:06;;;;;;;5.28;3.25;;;;;;;26.68;52.03;100506.81;5022169;28;20213;-85
2022/08/04 07:29:35;;;;;;;4.45;2.80;;;;;;;26.89;51.15;100503.88;5022159;28;20222;-85
2022/08/04 07:32:03;;;;;;;6.72;3.40;;;;;;;27.10;50.48;100504.81;5020645;28;20225;-85
2022/08/04 07:34:30;;;;;;;4.82;3.33;;;;;;;27.32;49.61;100503.56;5020927;28;20203;-84
2022/08/04 07:36:59;;;;;;;7.30;3.10;;;;;;;27.54;49.35;100494.09;5015842;28;20206;-85
2022/08/04 07:39:28;;;;;;;8.18;3.00;;;;;;;27.78;48.34;100500.00;5013415;28;20716;-85
2022/08/04 07:41:56;;;;;;;9.13;2.78;;;;;;;27.98;47.36;100498.91;5017981;28;20704;-85
2022/08/04 07:44:24;;;;;;;4.30;2.80;;;;;;;28.20;47.06;100490.44;5019560;28;20210;-85
2022/08/04 07:46:52;;;;;;;4.13;3.00;;;;;;;28.40;45.90;100490.38;5017877;28;20214;-85
2022/08/04 07:49:19;;;;;;;7.47;2.80;;;;;;;28.60;44.79;100482.91;5021688;28;20212;-85
2022/08/04 07:51:46;;;;;;;3.58;2.60;;;;;;;28.80;44.20;100482.84;5021044;28;20227;-85
2022/08/04 07:54:13;;;;;;;5.97;2.85;;;;;;;28.96;43.28;100483.16;5023348;28;20600;-85
2022/08/04 07:56:41;;;;;;;5.93;3.28;;;;;;;29.17;42.17;100481.09;5020076;28;20257;-85
2022/08/04 07:59:09;;;;;;;4.13;2.58;;;;;;;29.37;42.69;100476.31;5021385;28;20262;-84
2022/08/04 08:01:37;;;;;;;3.22;2.60;;;;;;;29.58;41.19;100481.41;5029686;28;20722;-84
2022/08/04 08:04:07;;;;;;;4.10;2.75;;;;;;;29.79;40.85;100468.31;5030025;28;20574;-84
2022/08/04 08:06:36;;;;;;;4.55;2.40;;;;;;;29.98;39.15;100476.38;5023704;28;20210;-84
2022/08/04 08:09:08;;;;;;;4.18;2.75;;;;;;;30.16;38.25;100470.03;5022643;28;20585;-84
2022/08/04 08:11:34;;;;;;;4.28;2.42;;;;;;;30.36;37.53;100467.91;5022492;28;20214;-84
2022/08/04 08:14:02;;;;;;;7.32;2.55;;;;;;;30.55;37.05;100468.75;5026667;28;20212;-85
2022/08/04 08:16:29;;;;;;;3.35;2.50;;;;;;;30.76;37.29;100469.31;5023805;28;20209;-85
2022/08/04 08:18:58;;;;;;;4.65;2.47;;;;;;;30.95;36.50;100469.00;5019520;28;20227;-85
2022/08/04 08:21:26;;;;;;;2.03;1.90;;;;;;;31.15;35.10;100467.91;5014858;28;20202;-85
2022/08/04 08:23:56;;;;;;;2.10;2.00;;;;;;;31.32;34.18;100457.88;5023184;28;20732;-85
2022/08/04 08:26:23;;;;;;;2.88;1.70;;;;;;;31.50;33.46;100457.75;5019390;28;20218;-85
2022/08/04 08:28:50;;;;;;;3.05;1.85;;;;;;;31.68;32.42;100452.16;5021447;28;20614;-85
2022/08/04 08:31:16;;;;;;;2.63;1.88;;;;;;;31.87;32.28;100452.88;5020841;28;20210;-85
2022/08/04 08:33:43;;;;;;;3.17;1.90;;;;;;;32.04;31.78;100456.56;5020332;28;20673;-85
2022/08/04 08:36:19;;;;;;;2.10;1.90;;;;;;;32.21;31.73;100459.41;5019085;28;20685;-85
2022/08/04 08:38:55;;;;;;;2.78;1.80;;;;;;;32.42;31.67;100449.66;5017438;28;20685;-85
2022/08/04 08:42:02;;;;;;;2.10;1.80;;;;;;;32.68;31.31;100446.28;5019959;28;20206;-84
2022/08/04 08:44:52;;;;;;;2.20;1.80;;;;;;;32.91;31.02;100448.13;4985452;28;20208;-85
2022/08/04 08:47:32;;;;;;;3.90;1.88;;;;;;;33.10;30.50;100440.44;5024983;28;20395;-85
2022/08/04 08:50:37;;;;;;;1.80;1.70;;;;;;;33.26;30.06;100438.81;5024791;28;20202;-84
2022/08/04 08:53:44;;;;;;;2.15;1.60;;;;;;;33.41;29.61;100444.56;4989808;28;20230;-85
2022/08/04 08:56:31;;;;;;;2.05;1.70;;;;;;;33.60;30.21;100440.44;5020418;28;20249;-85
2022/08/04 08:59:14;;;;;;;2.85;1.65;;;;;;;33.75;29.63;100440.66;5026235;28;20760;-85
2022/08/04 09:02:02;;;;;;;2.35;2.10;;;;;;;33.94;29.23;100437.63;5015493;28;20633;-85
2022/08/04 09:04:55;;;;;;;7.03;1.98;;;;;;;34.08;28.40;100433.41;5021869;28;20211;-84
2022/08/04 09:07:44;;;;;;;3.65;1.90;;;;;;;34.22;28.41;100445.72;5017028;28;20203;-84
2022/08/04 09:10:18;;;;;;;3.20;1.98;;;;;;;34.33;28.83;100430.16;5017470;28;20211;-84
2022/08/04 09:13:00;;;;;;;2.50;1.60;;;;;;;34.44;28.41;100437.44;5019003;28;20232;-84
2022/08/04 09:15:37;;;;;;;6.30;1.85;;;;;;;34.59;28.01;100436.78;5015564;28;20205;-84
2022/08/04 09:18:09;;;;;;;3.60;1.80;;;;;;;34.72;27.86;100433.63;5019686;28;20225;-84
2022/08/04 09:20:40;;;;;;;2.40;1.70;;;;;;;34.86;27.07;100428.53;5018906;28;20210;-84
2022/08/04 09:23:16;;;;;;;2.45;1.92;;;;;;;34.97;26.83;100431.09;5018203;28;20269;-85
2022/08/04 09:25:51;;;;;;;2.70;1.75;;;;;;;35.06;27.44;100421.25;5023600;28;20248;-84
2022/08/04 09:28:24;;;;;;;2.67;1.60;;;;;;;35.19;27.14;100421.88;5021603;28;20691;-84
2022/08/04 09:30:57;;;;;;;2.30;1.80;;;;;;;35.27;26.81;100425.03;5026331;28;20656;-83
2022/08/04 09:33:37;;;;;;;2.00;1.80;;;;;;;35.39;26.61;100431.22;5022076;28;20597;-83
2022/08/04 09:36:13;;;;;;;3.17;1.63;;;;;;;35.52;26.11;100421.59;5023288;28;20214;-84
2022/08/04 09:38:46;;;;;;;2.17;1.75;;;;;;;35.64;25.48;100424.19;5022067;28;20734;-86
2022/08/04 09:41:24;;;;;;;2.40;1.58;;;;;;;35.69;24.40;100419.50;5023604;28;20198;-84
2022/08/04 09:44:12;;;;;;;1.67;1.58;;;;;;;35.75;25.31;100423.13;5021472;28;20226;-84
2022/08/04 09:46:45;;;;;;;2.22;1.70;;;;;;;35.83;24.65;100417.13;5022151;28;20205;-84
2022/08/04 09:49:16;;;;;;;2.80;1.70;;;;;;;35.89;24.82;100416.03;5022874;28;20199;-83
2022/08/04 09:51:53;;;;;;;2.33;2.03;;;;;;;35.95;24.74;100419.66;5022721;28;20233;-84
2022/08/04 09:54:28;;;;;;;2.60;1.55;;;;;;;36.00;24.93;100417.75;5021834;28;20206;-83
2022/08/04 09:57:04;;;;;;;3.08;1.65;;;;;;;36.08;24.23;100411.69;5021461;28;20214;-85
2022/08/04 09:59:41;;;;;;;1.98;1.88;;;;;;;36.14;24.96;100416.16;5021937;28;20857;-85
2022/08/04 10:02:13;;;;;;;2.45;1.70;;;;;;;36.23;24.25;100410.91;5022496;28;20586;-84
2022/08/04 10:04:42;;;;;;;2.75;1.90;;;;;;;36.31;24.52;100409.59;5020919;28;20202;-85
2022/08/04 10:07:27;;;;;;;2.97;1.83;;;;;;;36.35;24.60;100408.78;5019169;28;20204;-84
2022/08/04 10:10:10;;;;;;;2.95;1.83;;;;;;;36.41;23.91;100410.44;5023994;28;20209;-85
2022/08/04 10:12:49;;;;;;;2.00;1.90;;;;;;;36.48;24.12;100401.84;5020353;28;20595;-84
2022/08/04 10:15:20;;;;;;;2.33;2.13;;;;;;;36.53;24.48;100404.66;5019350;28;20202;-84
2022/08/04 10:18:11;;;;;;;1.95;1.85;;;;;;;36.60;24.52;100387.72;5029493;28;20209;-85
2022/08/04 10:20:50;;;;;;;2.03;1.92;;;;;;;36.66;24.27;100386.63;5032964;28;20203;-85
2022/08/04 10:23:31;;;;;;;2.60;1.83;;;;;;;36.74;24.31;100386.94;5032239;28;20233;-85
2022/08/04 10:26:06;;;;;;;4.97;2.10;;;;;;;36.86;24.67;100381.13;5029595;28;20201;-85
2022/08/04 10:28:38;;;;;;;3.05;1.85;;;;;;;37.00;23.99;100389.72;5030966;28;20259;-85
2022/08/04 10:31:09;;;;;;;2.92;1.95;;;;;;;37.04;24.06;100377.78;5023633;28;20213;-84
2022/08/04 10:33:42;;;;;;;1.95;1.80;;;;;;;37.08;23.97;100378.91;5022542;28;21645;-85
2022/08/04 10:36:12;;;;;;;2.10;1.90;;;;;;;37.12;23.35;100376.38;5026105;28;20198;-85
2022/08/04 10:38:49;;;;;;;2.95;1.70;;;;;;;37.12;23.48;100385.53;5025371;28;20223;-86
2022/08/04 10:41:26;;;;;;;2.22;1.83;;;;;;;37.21;23.78;100387.81;5022315;28;20204;-84
2022/08/04 10:44:05;;;;;;;3.17;1.92;;;;;;;37.25;23.42;100386.13;5026052;28;20782;-84
2022/08/04 10:46:37;;;;;;;1.92;1.83;;;;;;;37.29;23.52;100390.00;5021403;28;20207;-84
2022/08/04 10:49:08;;;;;;;1.70;1.60;;;;;;;37.31;22.98;100383.06;5017049;28;20198;-84
2022/08/04 10:51:40;;;;;;;1.92;1.50;;;;;;;37.30;23.04;100370.28;5023294;28;20229;-84
2022/08/04 10:54:11;;;;;;;2.35;1.60;;;;;;;37.34;22.89;100376.09;5023522;28;20204;-85
2022/08/04 10:56:41;;;;;;;1.90;1.70;;;;;;;37.35;22.84;100377.78;5019154;28;20199;-85
2022/08/04 10:59:13;;;;;;;1.60;1.50;;;;;;;37.40;23.02;100375.00;5020526;28;20719;-84
2022/08/04 11:01:45;;;;;;;1.92;1.73;;;;;;;37.46;22.99;100373.84;5023407;28;20569;-84
2022/08/04 11:04:22;;;;;;;1.70;1.60;;;;;;;37.52;22.65;100381.06;5017449;28;20205;-85
2022/08/04 11:06:51;;;;;;;2.90;1.70;;;;;;;37.55;22.48;100377.72;5020468;28;20256;-84
2022/08/04 11:09:19;;;;;;;2.03;1.90;;;;;;;37.57;22.80;100374.69;5022254;28;20289;-84
2022/08/04 11:11:53;;;;;;;1.83;1.73;;;;;;;37.56;22.56;100382.19;5020161;28;20661;-84
2022/08/04 11:14:24;;;;;;;2.10;1.85;;;;;;;37.54;22.65;100378.84;5022802;28;20290;-84
2022/08/04 11:16:55;;;;;;;3.28;2.28;;;;;;;37.49;23.05;100379.69;5022591;28;20228;-84
2022/08/04 11:19:32;;;;;;;1.88;1.77;;;;;;;37.46;23.18;100374.69;5022366;28;20218;-84
2022/08/04 11:22:03;;;;;;;3.00;1.70;;;;;;;37.43;22.88;100375.28;5046464;22;20245;-80
2022/08/04 11:24:36;;;;;;;3.97;2.00;;;;;;;37.45;23.20;100374.97;5047421;28;20750;-78
2022/08/04 11:27:08;;;;;;;1.90;1.77;;;;;;;37.51;23.61;100377.47;5047420;28;20197;-80
2022/08/04 11:29:42;;;;;;;1.90;1.80;;;;;;;37.55;23.40;100363.84;5043604;28;20200;-79
2022/08/04 11:34:47;;;;;;;2.47;2.28;;;;;;;37.74;23.58;100370.47;5048195;28;20761;-74
2022/08/04 11:37:18;;;;;;;2.50;1.90;;;;;;;37.83;23.30;100356.81;5048765;28;20681;-73
2022/08/04 11:39:50;;;;;;;2.85;1.90;;;;;;;37.95;23.29;100362.06;5054224;28;20225;-73
2022/08/04 11:42:20;;;;;;;2.92;2.15;;;;;;;38.01;23.55;100360.91;5043447;28;20205;-74
2022/08/04 11:44:49;;;;;;;2.20;1.80;;;;;;;38.08;23.12;100355.88;5026056;28;20197;-73
2022/08/04 11:47:24;;;;;;;2.80;1.90;;;;;;;38.11;23.24;100358.13;5026881;28;20202;-73
2022/08/04 11:49:58;;;;;;;2.03;1.60;;;;;;;38.15;23.25;100360.03;5035524;28;20201;-74
2022/08/04 11:52:27;;;;;;;2.05;1.90;;;;;;;38.17;23.11;100357.78;5026104;28;20241;-73
2022/08/04 11:54:55;;;;;;;2.25;1.63;;;;;;;38.15;22.67;100364.78;5029651;28;20212;-74
2022/08/04 11:57:22;;;;;;;3.55;1.73;;;;;;;38.13;22.64;100373.41;5029694;28;20255;-74
2022/08/04 11:59:49;;;;;;;2.63;1.85;;;;;;;38.10;22.10;100370.34;5023943;28;20229;-73
2022/08/04 12:02:39;;;;;;;1.85;1.75;;;;;;;38.02;22.51;100366.19;5030176;28;20226;-74
2022/08/04 12:05:09;;;;;;;2.90;1.83;;;;;;;38.00;22.71;100370.34;5030872;28;20683;-74
2022/08/04 12:07:47;;;;;;;1.90;1.67;;;;;;;37.98;22.68;100369.84;5032016;28;20263;-74
2022/08/04 12:10:24;;;;;;;2.20;2.00;;;;;;;37.97;22.70;100370.94;5026140;28;20580;-73